createdAt,value
2022-09-24T08:31:45.349Z,9.48
2022-09-24T08:34:12.827Z,9.83
2022-09-24T08:36:43.008Z,9.05
2022-09-24T08:39:10.582Z,8.85
2022-09-24T08:41:49.380Z,9.43
2022-09-24T08:44:51.736Z,9.35
2022-09-24T08:47:50.891Z,8.50
2022-09-24T08:50:17.663Z,10.00
2022-09-24T08:52:45.600Z,10.32
2022-09-24T08:55:53.333Z,9.77
2022-09-24T08:58:44.116Z,10.50
2022-09-24T09:01:11.371Z,8.73
2022-09-24T09:03:53.043Z,10.77
2022-09-24T09:06:38.493Z,10.43
2022-09-24T09:09:31.405Z,11.70
2022-09-24T09:12:00.951Z,10.30
2022-09-24T09:14:45.092Z,11.25
2022-09-24T09:17:36.271Z,12.05
2022-09-24T09:20:06.268Z,11.65
2022-09-24T09:22:38.228Z,12.00
2022-09-24T09:25:20.648Z,11.60
2022-09-24T09:27:58.776Z,12.53
2022-09-24T09:30:25.569Z,11.05
2022-09-24T09:33:10.379Z,11.90
2022-09-24T09:35:58.776Z,14.77
2022-09-24T09:38:37.842Z,13.95
2022-09-24T09:41:26.492Z,13.38
2022-09-24T09:44:00.827Z,12.05
2022-09-24T09:46:30.440Z,12.35
2022-09-24T09:49:03.064Z,12.77
2022-09-24T09:51:31.940Z,12.75
2022-09-24T09:53:59.945Z,14.35
2022-09-24T09:56:47.527Z,13.23
2022-09-24T09:59:17.956Z,13.07
2022-09-24T10:01:46.735Z,13.20
2022-09-24T10:04:35.533Z,13.00
2022-09-24T10:07:07.106Z,12.45
2022-09-24T10:09:34.122Z,11.13
2022-09-24T10:12:27.172Z,11.73
2022-09-24T10:15:00.529Z,10.93
2022-09-24T10:17:34.154Z,10.98
2022-09-24T10:20:01.934Z,9.60
2022-09-24T10:22:28.698Z,9.95
2022-09-24T10:24:56.380Z,9.07
2022-09-24T10:27:30.263Z,9.00
2022-09-24T10:30:15.739Z,8.88
2022-09-24T10:32:42.573Z,9.02
2022-09-24T10:35:35.656Z,9.80
2022-09-24T10:38:04.922Z,10.30
2022-09-24T10:40:38.721Z,10.13
2022-09-24T10:43:06.129Z,8.48
2022-09-24T10:45:51.082Z,9.10
2022-09-24T10:48:55.087Z,8.80
2022-09-24T10:51:30.537Z,8.80
2022-09-24T10:54:12.345Z,8.63
2022-09-24T10:56:46.644Z,9.25
2022-09-24T10:59:34.911Z,9.80
2022-09-24T11:02:13.812Z,9.57
2022-09-24T11:04:56.711Z,10.77
2022-09-24T11:07:45.870Z,9.07
2022-09-24T11:10:17.573Z,9.45
2022-09-24T11:13:07.335Z,8.85
2022-09-24T11:15:58.879Z,10.45
2022-09-24T11:18:32.049Z,10.20
2022-09-24T11:24:30.175Z,9.23
2022-09-24T11:27:23.944Z,10.05
2022-09-24T11:30:10.260Z,9.05
2022-09-24T11:33:04.756Z,9.93
2022-09-24T11:35:58.278Z,10.32
2022-09-24T11:41:29.180Z,8.70
2022-09-24T11:44:13.603Z,9.70
2022-09-24T11:46:47.288Z,11.15
2022-09-24T11:49:40.932Z,9.40
2022-09-24T11:54:46.250Z,10.43
2022-09-24T11:57:25.338Z,10.73
2022-09-24T12:00:08.039Z,10.15
2022-09-24T12:02:40.390Z,10.30
2022-09-24T12:05:08.223Z,10.15
2022-09-24T12:07:39.768Z,10.70
2022-09-24T12:10:29.792Z,9.43
2022-09-24T12:13:13.492Z,9.40
2022-09-24T12:15:47.433Z,9.93
2022-09-24T12:18:29.252Z,9.75
2022-09-24T12:21:08.990Z,9.30
2022-09-24T12:23:39.767Z,9.50
2022-09-24T12:26:06.699Z,10.32
2022-09-24T12:29:00.495Z,9.32
2022-09-24T12:31:51.470Z,9.25
2022-09-24T12:34:36.912Z,9.57
2022-09-24T12:37:09.626Z,8.93
2022-09-24T12:39:52.835Z,10.38
2022-09-24T12:44:53.010Z,8.70
2022-09-24T12:47:44.250Z,9.68
2022-09-24T12:50:20.099Z,9.60
2022-09-24T12:52:46.835Z,10.73
2022-09-24T12:55:21.494Z,10.20
2022-09-24T12:57:57.062Z,9.15
2022-09-24T13:00:43.394Z,10.13
2022-09-24T13:03:47.406Z,8.10
2022-09-24T13:06:32.563Z,8.48
2022-09-24T13:08:59.850Z,8.00
2022-09-24T13:11:26.598Z,9.05
2022-09-24T13:14:11.628Z,8.10
2022-09-24T13:16:39.963Z,9.25
2022-09-24T13:19:20.724Z,7.53
2022-09-24T13:21:54.008Z,8.25
2022-09-24T13:24:45.658Z,8.48
2022-09-24T13:27:31.528Z,8.07
2022-09-24T13:30:20.770Z,13.02
2022-09-24T13:33:03.497Z,16.75
2022-09-24T13:36:08.924Z,8.88
2022-09-24T13:39:20.469Z,9.13
2022-09-24T13:42:24.838Z,8.98
2022-09-24T13:45:11.393Z,9.57
2022-09-24T13:47:42.712Z,9.85
2022-09-24T13:50:14.318Z,8.00
2022-09-24T13:53:06.625Z,7.18
2022-09-24T13:55:34.026Z,7.45
2022-09-24T13:58:00.954Z,8.07
2022-09-24T14:00:28.806Z,7.03
2022-09-24T14:02:56.816Z,7.40
2022-09-24T14:05:24.133Z,6.30
2022-09-24T14:08:03.171Z,6.97
2022-09-24T14:10:30.025Z,7.45
2022-09-24T14:13:26.031Z,7.05
2022-09-24T14:16:00.575Z,6.30
2022-09-24T14:18:28.170Z,6.35
2022-09-24T14:20:59.517Z,6.20
2022-09-24T14:23:28.198Z,5.75
2022-09-24T14:25:54.967Z,5.72
2022-09-24T14:28:21.742Z,5.00
2022-09-24T14:30:53.106Z,5.20
2022-09-24T14:33:22.786Z,5.30
2022-09-24T14:35:50.220Z,4.50
2022-09-24T14:38:19.850Z,8.02
2022-09-24T14:40:52.015Z,6.25
2022-09-24T14:43:23.835Z,5.30
2022-09-24T14:45:50.849Z,7.50
2022-09-24T14:48:30.582Z,7.10
2022-09-24T14:50:57.435Z,7.35
2022-09-24T14:53:27.267Z,5.35
2022-09-24T14:55:54.111Z,6.38
2022-09-24T14:58:36.292Z,8.77
2022-09-24T15:01:22.140Z,7.22
2022-09-24T15:04:00.119Z,9.65
2022-09-24T15:06:32.268Z,5.05
2022-09-24T15:09:00.607Z,4.93
2022-09-24T15:11:29.206Z,6.32
2022-09-24T15:14:03.186Z,5.10
2022-09-24T15:16:30.447Z,7.72
2022-09-24T15:19:21.275Z,11.55
2022-09-24T15:21:49.298Z,5.15
2022-09-24T15:24:17.556Z,5.82
2022-09-24T15:27:08.973Z,5.35
2022-09-24T15:29:35.877Z,5.00
2022-09-24T15:32:03.190Z,4.43
2022-09-24T15:34:30.238Z,5.38
2022-09-24T15:36:59.531Z,5.30
2022-09-24T15:39:27.356Z,6.13
2022-09-24T15:41:54.252Z,5.45
2022-09-24T15:44:33.620Z,5.97
2022-09-24T15:47:01.043Z,5.63
2022-09-24T15:49:27.927Z,10.13
2022-09-24T15:52:01.873Z,17.67
2022-09-24T15:54:29.027Z,13.15
2022-09-24T15:56:56.051Z,6.57
2022-09-24T15:59:23.718Z,5.60
2022-09-24T16:01:52.066Z,8.70
2022-09-24T16:04:19.288Z,5.38
2022-09-24T16:06:46.266Z,5.93
2022-09-24T16:09:13.066Z,7.22
2022-09-24T16:11:40.261Z,5.95
2022-09-24T16:14:07.563Z,5.22
2022-09-24T16:16:34.550Z,5.85
2022-09-24T16:19:01.442Z,5.00
2022-09-24T16:21:28.286Z,5.80
2022-09-24T16:24:01.438Z,5.38
2022-09-24T16:28:55.248Z,4.80
2022-09-24T16:31:23.754Z,4.80
2022-09-24T16:33:50.904Z,5.43
2022-09-24T16:36:17.918Z,5.30
2022-09-24T16:38:45.003Z,5.30
2022-09-24T16:41:11.994Z,5.65
2022-09-24T16:43:39.925Z,5.70
2022-09-24T16:46:08.453Z,5.53
2022-09-24T16:48:38.650Z,5.28
2022-09-24T16:51:06.750Z,6.50
2022-09-24T16:53:36.296Z,6.45
2022-09-24T16:56:06.734Z,6.10
2022-09-24T16:58:36.436Z,6.60
2022-09-24T17:01:06.984Z,5.82
2022-09-24T17:03:38.424Z,6.60
2022-09-24T17:06:17.350Z,6.82
2022-09-24T17:09:08.914Z,5.68
2022-09-24T17:11:42.157Z,5.57
2022-09-24T17:14:11.626Z,6.05
2022-09-24T17:16:43.826Z,5.97
2022-09-24T17:19:26.992Z,6.27
2022-09-24T17:22:12.752Z,6.10
2022-09-24T17:24:49.566Z,6.88
2022-09-24T17:27:19.754Z,7.47
2022-09-24T17:29:49.793Z,7.00
2022-09-24T17:32:17.104Z,7.28
2022-09-24T17:34:46.072Z,7.80
2022-09-24T17:37:25.650Z,7.47
2022-09-24T17:39:57.087Z,7.75
2022-09-24T17:42:23.916Z,8.40
2022-09-24T17:44:51.071Z,9.07
2022-09-24T17:47:20.828Z,7.97
2022-09-24T17:49:57.045Z,7.40
2022-09-24T17:52:50.749Z,8.43
2022-09-24T18:00:52.533Z,9.43
2022-09-24T18:03:28.465Z,8.35
2022-09-24T18:06:05.888Z,7.55
2022-09-24T18:08:39.779Z,7.70
2022-09-24T18:11:26.619Z,8.32
2022-09-24T18:14:06.628Z,9.30
2022-09-24T18:16:42.308Z,8.93
2022-09-24T18:19:24.573Z,9.10
2022-09-24T18:22:03.607Z,9.38
2022-09-24T18:24:45.634Z,8.68
2022-09-24T18:27:25.204Z,10.57
2022-09-24T18:29:58.668Z,13.00
2022-09-24T18:32:42.589Z,13.77
2022-09-24T18:35:25.776Z,16.88
2022-09-24T18:38:02.885Z,14.25
2022-09-24T18:40:29.803Z,14.55
2022-09-24T18:42:59.626Z,12.27
2022-09-24T18:45:37.146Z,10.48
2022-09-24T18:48:14.894Z,9.98
2022-09-24T18:50:58.680Z,11.50
2022-09-24T18:53:31.395Z,13.38
2022-09-24T18:56:07.427Z,14.52
2022-09-24T18:58:47.799Z,16.02
2022-09-24T19:01:27.000Z,14.35
2022-09-24T19:04:05.694Z,11.73
2022-09-24T19:06:37.203Z,9.50
2022-09-24T19:09:07.858Z,11.60
2022-09-24T19:11:46.074Z,11.57
2022-09-24T19:14:18.121Z,11.40
2022-09-24T19:16:45.567Z,11.15
2022-09-24T19:19:26.473Z,11.70
2022-09-24T19:22:06.725Z,11.38
2022-09-24T19:24:39.218Z,11.93
2022-09-24T19:27:08.771Z,11.10
2022-09-24T19:29:45.982Z,9.48
2022-09-24T19:32:28.331Z,12.45
2022-09-24T19:35:04.214Z,11.10
2022-09-24T19:37:33.768Z,9.90
2022-09-24T19:40:03.303Z,9.23
2022-09-24T19:42:47.869Z,9.65
2022-09-24T19:45:27.705Z,18.30
2022-09-24T19:48:09.801Z,14.10
2022-09-24T19:50:50.283Z,13.57
2022-09-24T19:53:26.941Z,10.77
2022-09-24T19:56:09.672Z,10.20
2022-09-24T19:58:52.818Z,8.98
2022-09-24T20:01:37.255Z,9.77
2022-09-24T20:04:07.355Z,9.05
2022-09-24T20:06:46.690Z,9.73
2022-09-24T20:09:25.661Z,10.05
2022-09-24T20:12:04.464Z,10.23
2022-09-24T20:14:42.318Z,10.25
2022-09-24T20:17:21.258Z,9.68
2022-09-24T20:20:01.672Z,9.25
2022-09-24T20:22:42.837Z,8.02
2022-09-24T20:25:40.405Z,9.25
2022-09-24T20:28:19.818Z,10.02
2022-09-24T20:33:55.346Z,8.90
2022-09-24T20:36:35.663Z,9.25
2022-09-24T20:39:15.866Z,8.80
2022-09-24T20:42:00.694Z,9.80
2022-09-24T20:44:39.837Z,9.45
2022-09-24T20:47:19.846Z,9.40
2022-09-24T20:49:59.408Z,8.15
2022-09-24T20:52:39.601Z,11.20
2022-09-24T20:55:25.470Z,9.95
2022-09-24T20:58:07.863Z,9.15
2022-09-24T21:00:54.614Z,8.63
2022-09-24T21:03:43.890Z,9.80
2022-09-24T21:06:23.641Z,10.20
2022-09-24T21:09:00.718Z,10.75
2022-09-24T21:11:37.760Z,9.82
2022-09-24T21:14:17.675Z,11.18
2022-09-24T21:16:56.803Z,12.55
2022-09-24T21:19:36.844Z,10.45
2022-09-24T21:22:14.293Z,11.55
2022-09-24T21:24:54.969Z,11.05
2022-09-24T21:27:34.891Z,11.13
2022-09-24T21:30:14.827Z,9.38
2022-09-24T21:33:01.098Z,9.35
2022-09-24T21:35:37.059Z,9.27
2022-09-24T21:38:20.722Z,9.70
2022-09-24T21:41:08.838Z,10.15
2022-09-24T21:43:47.704Z,10.82
2022-09-24T21:46:26.842Z,9.95
2022-09-24T21:49:04.665Z,9.73
2022-09-24T21:51:39.889Z,10.10
2022-09-24T21:54:19.362Z,10.68
2022-09-24T21:56:59.892Z,10.93
2022-09-24T21:59:51.840Z,11.13
2022-09-24T22:02:35.066Z,10.65
2022-09-24T22:05:15.629Z,10.73
2022-09-24T22:08:01.801Z,11.77
2022-09-24T22:10:41.706Z,10.60
2022-09-24T22:13:20.873Z,11.30
2022-09-24T22:15:59.561Z,10.40
2022-09-24T22:18:38.703Z,10.57
2022-09-24T22:21:19.912Z,10.02
2022-09-24T22:23:59.823Z,10.05
2022-09-24T22:26:38.950Z,9.35
2022-09-24T22:29:21.766Z,9.00
2022-09-24T22:32:01.485Z,8.90
2022-09-24T22:34:56.145Z,8.38
2022-09-24T22:37:29.880Z,8.32
2022-09-24T22:40:09.043Z,9.35
2022-09-24T22:42:53.691Z,9.82
2022-09-24T22:45:24.632Z,8.40
2022-09-24T22:47:57.471Z,7.80
2022-09-24T22:50:26.415Z,7.53
2022-09-24T22:52:56.618Z,6.55
2022-09-24T22:55:25.575Z,7.65
2022-09-24T22:57:52.455Z,9.43
2022-09-24T23:00:19.467Z,9.80
2022-09-24T23:02:55.867Z,8.45
2022-09-24T23:05:35.728Z,8.60
2022-09-24T23:08:14.742Z,7.47
2022-09-24T23:10:53.885Z,7.95
2022-09-24T23:13:31.402Z,9.05
2022-09-24T23:16:16.620Z,7.50
2022-09-24T23:18:51.304Z,8.57
2022-09-24T23:21:27.308Z,8.45
2022-09-24T23:24:06.348Z,8.48
2022-09-24T23:26:33.225Z,8.60
2022-09-24T23:29:00.697Z,9.23
2022-09-24T23:31:42.744Z,7.97
2022-09-24T23:34:15.400Z,7.78
2022-09-24T23:36:42.258Z,8.40
2022-09-24T23:39:20.036Z,8.20
2022-09-24T23:42:01.676Z,8.52
2022-09-24T23:44:43.722Z,8.13
2022-09-24T23:47:13.780Z,8.18
2022-09-24T23:49:40.561Z,9.38
2022-09-24T23:52:13.870Z,8.65
2022-09-24T23:54:46.659Z,7.38
2022-09-24T23:57:13.523Z,8.57
2022-09-24T23:59:40.684Z,7.78
